Time;durP1;ratioP1;P1;durP2;ratioP2;P2;SDS_P1;SDS_P2;PMS_P1;PMS_P2;Temp;Humidity;BMP_temperature;BMP_pressure;BME280_temperature;BME280_humidity;BME280_pressure;Samples;Min_cycle;Max_cycle;Signal;HPM_P1;HPM_P2
2021/04/11 00:02:44;;;;;;;5.28;1.90;;;;;;;;;;5007717;28;20488;-83
2021/04/11 00:05:32;;;;;;;4.25;2.00;;;;;;;;;;5024046;28;20048;-85
2021/04/11 00:08:18;;;;;;;7.00;2.13;;;;;;;;;;5019193;28;20041;-85
2021/04/11 00:11:04;;;;;;;4.75;1.70;;;;;;;;;;5024301;28;20030;-85
2021/04/11 00:13:52;;;;;;;4.38;1.85;;;;;;;;;;5024346;28;20033;-84
2021/04/11 00:16:37;;;;;;;4.47;2.10;;;;;;;;;;5022019;28;20041;-85
2021/04/11 00:19:22;;;;;;;4.47;1.90;;;;;;;;;;5019805;28;20029;-84
2021/04/11 00:22:08;;;;;;;5.03;1.80;;;;;;;;;;5021613;28;20033;-84
2021/04/11 00:24:53;;;;;;;5.80;1.88;;;;;;;;;;5023348;28;20546;-84
2021/04/11 00:27:39;;;;;;;4.47;1.73;;;;;;;;;;5024436;28;20095;-83
2021/04/11 00:30:25;;;;;;;3.55;1.52;;;;;;;;;;5023328;28;20120;-83
2021/04/11 00:33:26;;;;;;;4.05;1.95;;;;;;;;;;5006093;28;20017;-84
2021/04/11 00:36:13;;;;;;;5.03;2.15;;;;;;;;;;5023348;28;20025;-82
2021/04/11 00:38:58;;;;;;;3.97;2.00;;;;;;;;;;5023517;28;20052;-82
2021/04/11 00:41:46;;;;;;;2.75;1.75;;;;;;;;;;5021626;28;20018;-84
2021/04/11 00:44:32;;;;;;;3.97;1.60;;;;;;;;;;5022389;28;20125;-83
2021/04/11 00:47:17;;;;;;;5.40;2.08;;;;;;;;;;5024603;28;20033;-85
2021/04/11 00:50:04;;;;;;;4.45;1.98;;;;;;;;;;5018053;28;20484;-85
2021/04/11 00:52:49;;;;;;;4.18;1.98;;;;;;;;;;5025871;28;20045;-85
2021/04/11 00:55:35;;;;;;;4.65;1.88;;;;;;;;;;5019146;28;20030;-84
2021/04/11 00:58:24;;;;;;;6.75;1.90;;;;;;;;;;5015933;28;20022;-85
2021/04/11 01:01:09;;;;;;;5.70;1.88;;;;;;;;;;5020277;28;20029;-84
2021/04/11 01:03:55;;;;;;;2.78;1.48;;;;;;;;;;5022400;28;20038;-84
2021/04/11 01:06:42;;;;;;;3.33;1.60;;;;;;;;;;5025499;28;20024;-85
2021/04/11 01:09:28;;;;;;;5.38;1.85;;;;;;;;;;5025159;28;20112;-85
2021/04/11 01:12:16;;;;;;;5.10;1.60;;;;;;;;;;5024006;28;20060;-85
2021/04/11 01:15:02;;;;;;;5.35;1.70;;;;;;;;;;5027721;28;20024;-85
2021/04/11 01:17:48;;;;;;;4.32;1.50;;;;;;;;;;5026481;28;20520;-83
2021/04/11 01:20:33;;;;;;;3.85;2.03;;;;;;;;;;5020549;28;20095;-83
2021/04/11 01:23:34;;;;;;;4.35;1.80;;;;;;;;;;5014644;28;20044;-84
2021/04/11 01:26:19;;;;;;;7.70;2.00;;;;;;;;;;5027068;28;20108;-84
2021/04/11 01:29:05;;;;;;;4.22;1.60;;;;;;;;;;5010446;28;20549;-84
2021/04/11 01:31:50;;;;;;;5.57;1.80;;;;;;;;;;5024353;28;20033;-84
2021/04/11 01:34:36;;;;;;;3.40;2.00;;;;;;;;;;5027415;28;20595;-85
2021/04/11 01:37:23;;;;;;;3.25;1.80;;;;;;;;;;5018459;28;20088;-84
2021/04/11 01:40:11;;;;;;;3.10;1.88;;;;;;;;;;5025240;28;20034;-84
2021/04/11 01:42:56;;;;;;;5.40;1.90;;;;;;;;;;5020473;28;20112;-84
2021/04/11 01:45:43;;;;;;;4.05;1.95;;;;;;;;;;5020914;28;20041;-83
2021/04/11 01:48:32;;;;;;;2.67;1.27;;;;;;;;;;5022334;28;20399;-84
2021/04/11 01:51:21;;;;;;;5.03;1.88;;;;;;;;;;5028237;28;20104;-84
2021/04/11 01:54:09;;;;;;;4.88;1.73;;;;;;;;;;5026088;28;20017;-85
2021/04/11 01:56:54;;;;;;;7.35;2.00;;;;;;;;;;5024919;28;20395;-85
2021/04/11 01:59:39;;;;;;;4.38;1.60;;;;;;;;;;5024068;28;20021;-84
2021/04/11 02:02:24;;;;;;;3.22;1.88;;;;;;;;;;5017071;28;20049;-84
2021/04/11 02:05:15;;;;;;;3.80;2.00;;;;;;;;;;5027117;28;20025;-83
2021/04/11 02:08:01;;;;;;;3.10;1.73;;;;;;;;;;5024696;28;20021;-84
2021/04/11 02:10:47;;;;;;;5.43;1.80;;;;;;;;;;5014651;28;20021;-83
2021/04/11 02:13:36;;;;;;;4.60;2.13;;;;;;;;;;5024220;28;20138;-84
2021/04/11 02:16:23;;;;;;;5.55;1.80;;;;;;;;;;5023996;28;20057;-83
2021/04/11 02:19:13;;;;;;;4.82;2.08;;;;;;;;;;5023669;28;20056;-83
2021/04/11 02:21:58;;;;;;;;;;;;;;;;;;5019229;28;20495;-83
2021/04/11 02:24:43;;;;;;;3.92;2.10;;;;;;;;;;5020732;28;19936;-85
2021/04/11 02:27:29;;;;;;;3.80;2.20;;;;;;;;;;5027322;28;20033;-85
2021/04/11 02:30:15;;;;;;;5.75;2.30;;;;;;;;;;5024794;28;20503;-83
2021/04/11 02:33:01;;;;;;;3.42;1.83;;;;;;;;;;5027328;28;20243;-84
2021/04/11 02:35:46;;;;;;;2.95;1.70;;;;;;;;;;5025019;28;20021;-84
2021/04/11 02:38:31;;;;;;;5.65;2.20;;;;;;;;;;5022861;28;20029;-84
2021/04/11 02:41:17;;;;;;;5.78;2.20;;;;;;;;;;5012907;28;20053;-84
2021/04/11 02:44:03;;;;;;;6.75;2.00;;;;;;;;;;5019298;28;20029;-83
2021/04/11 02:46:49;;;;;;;5.38;2.55;;;;;;;;;;5028237;28;20029;-84
2021/04/11 02:49:34;;;;;;;4.05;1.83;;;;;;;;;;5028100;28;20017;-83
2021/04/11 02:52:21;;;;;;;3.70;1.75;;;;;;;;;;5024649;28;20108;-84
2021/04/11 02:55:09;;;;;;;3.53;1.63;;;;;;;;;;5021337;28;20025;-85
2021/04/11 02:57:55;;;;;;;2.75;1.85;;;;;;;;;;5022014;28;20346;-84
2021/04/11 03:00:45;;;;;;;1.98;1.35;;;;;;;;;;5016887;28;20017;-85
2021/04/11 03:03:31;;;;;;;2.95;1.63;;;;;;;;;;5021252;28;20029;-85
2021/04/11 03:06:20;;;;;;;6.70;1.83;;;;;;;;;;5020694;28;20024;-84
2021/04/11 03:09:08;;;;;;;3.65;2.00;;;;;;;;;;5022177;28;20075;-84
2021/04/11 03:11:57;;;;;;;3.85;1.90;;;;;;;;;;5020067;28;20037;-85
2021/04/11 03:14:43;;;;;;;2.73;1.60;;;;;;;;;;5023034;28;20037;-85
2021/04/11 03:17:30;;;;;;;4.53;1.77;;;;;;;;;;5022585;28;20056;-85
2021/04/11 03:20:18;;;;;;;5.70;1.85;;;;;;;;;;5021339;28;20492;-85
2021/04/11 03:23:04;;;;;;;4.95;1.83;;;;;;;;;;5022558;28;20096;-86
2021/04/11 03:25:52;;;;;;;3.22;1.80;;;;;;;;;;5020535;28;20045;-85
2021/04/11 03:28:43;;;;;;;4.00;1.67;;;;;;;;;;5026434;28;20050;-86
2021/04/11 03:31:31;;;;;;;4.13;1.80;;;;;;;;;;5023744;28;20112;-86
2021/04/11 03:34:17;;;;;;;4.32;1.83;;;;;;;;;;5022823;28;20026;-86
2021/04/11 03:37:05;;;;;;;4.78;1.73;;;;;;;;;;5023670;28;20033;-86
2021/04/11 03:39:50;;;;;;;3.53;1.45;;;;;;;;;;5022091;28;20021;-84
2021/04/11 03:42:36;;;;;;;3.85;1.75;;;;;;;;;;5021174;28;20033;-84
2021/04/11 03:45:22;;;;;;;4.82;2.00;;;;;;;;;;5021466;28;20193;-84
2021/04/11 03:48:07;;;;;;;4.90;2.03;;;;;;;;;;5023042;28;20448;-85
2021/04/11 03:50:59;;;;;;;2.70;1.75;;;;;;;;;;5019095;28;20475;-83
2021/04/11 03:53:44;;;;;;;3.88;2.08;;;;;;;;;;5026246;28;20030;-84
2021/04/11 03:56:33;;;;;;;3.95;1.98;;;;;;;;;;5024093;28;20033;-83
2021/04/11 03:59:20;;;;;;;4.38;1.65;;;;;;;;;;5023626;28;20025;-84
2021/04/11 04:02:06;;;;;;;4.05;2.15;;;;;;;;;;5022225;28;20040;-84
2021/04/11 04:04:53;;;;;;;3.45;1.50;;;;;;;;;;5024504;28;20025;-83
2021/04/11 04:07:53;;;;;;;3.90;1.75;;;;;;;;;;5023189;28;20033;-84
2021/04/11 04:10:39;;;;;;;4.05;1.98;;;;;;;;;;5037150;28;20045;-84
2021/04/11 04:13:40;;;;;;;3.83;1.95;;;;;;;;;;5020553;28;20049;-84
2021/04/11 04:16:25;;;;;;;3.50;2.00;;;;;;;;;;5025189;28;20306;-85
2021/04/11 04:19:15;;;;;;;3.85;1.80;;;;;;;;;;5020670;28;20075;-85
2021/04/11 04:22:21;;;;;;;3.00;1.80;;;;;;;;;;5026157;28;20116;-85
2021/04/11 04:25:16;;;;;;;3.67;2.00;;;;;;;;;;5024002;28;20155;-85
2021/04/11 04:28:08;;;;;;;5.88;1.95;;;;;;;;;;5023331;28;20495;-85
2021/04/11 04:31:01;;;;;;;2.40;1.73;;;;;;;;;;5019215;28;20034;-85
2021/04/11 04:33:47;;;;;;;5.38;2.08;;;;;;;;;;5023382;28;20025;-84
2021/04/11 04:36:45;;;;;;;4.80;1.98;;;;;;;;;;5019589;28;20099;-84
2021/04/11 04:39:33;;;;;;;7.43;2.00;;;;;;;;;;5018276;28;20021;-83
2021/04/11 04:42:27;;;;;;;5.63;1.90;;;;;;;;;;5029582;28;20053;-85
2021/04/11 04:45:19;;;;;;;4.93;1.98;;;;;;;;;;5035600;28;20476;-84
2021/04/11 04:48:10;;;;;;;5.55;1.90;;;;;;;;;;5024927;28;20029;-85
2021/04/11 04:50:56;;;;;;;3.75;1.55;;;;;;;;;;5028529;28;20164;-85
2021/04/11 04:53:44;;;;;;;4.82;2.10;;;;;;;;;;5027469;28;20025;-85
2021/04/11 04:56:35;;;;;;;4.97;2.00;;;;;;;;;;5008117;28;20029;-84
2021/04/11 04:59:23;;;;;;;2.30;1.70;;;;;;;;;;5034749;28;20073;-84
2021/04/11 05:02:15;;;;;;;5.03;1.92;;;;;;;;;;5027736;28;20029;-86
2021/04/11 05:05:02;;;;;;;4.70;2.22;;;;;;;;;;5025012;28;20026;-85
2021/04/11 05:07:50;;;;;;;5.10;2.00;;;;;;;;;;5024717;28;20028;-85
2021/04/11 05:10:37;;;;;;;3.35;1.92;;;;;;;;;;5026167;28;20535;-83
2021/04/11 05:13:24;;;;;;;5.53;1.80;;;;;;;;;;5029165;28;20029;-83
2021/04/11 05:16:12;;;;;;;4.78;2.00;;;;;;;;;;5023935;28;20052;-83
2021/04/11 05:19:04;;;;;;;5.97;2.05;;;;;;;;;;5024212;28;20033;-84
2021/04/11 05:21:52;;;;;;;3.90;1.90;;;;;;;;;;5020579;28;20029;-84
2021/04/11 05:24:41;;;;;;;3.67;1.98;;;;;;;;;;5024956;28;20392;-85
2021/04/11 05:27:34;;;;;;;4.90;1.88;;;;;;;;;;5027617;28;20106;-84
2021/04/11 05:30:22;;;;;;;10.75;3.53;;;;;;;;;;5026316;28;20029;-84
2021/04/11 05:33:13;;;;;;;4.00;2.00;;;;;;;;;;5024199;28;20026;-84
2021/04/11 05:36:19;;;;;;;2.97;2.17;;;;;;;;;;5021632;28;20022;-84
2021/04/11 05:39:13;;;;;;;8.55;2.55;;;;;;;;;;5017832;28;20022;-84
2021/04/11 05:42:15;;;;;;;6.70;2.10;;;;;;;;;;5022314;28;20057;-84
2021/04/11 05:45:15;;;;;;;5.43;2.08;;;;;;;;;;5027852;28;20024;-83
2021/04/11 05:48:18;;;;;;;4.68;2.92;;;;;;;;;;5028349;28;20029;-84
2021/04/11 05:51:05;;;;;;;6.35;2.45;;;;;;;;;;5022340;28;20432;-83
2021/04/11 05:53:53;;;;;;;5.22;2.42;;;;;;;;;;5028384;28;20026;-83
2021/04/11 05:56:40;;;;;;;6.32;2.75;;;;;;;;;;5024816;28;20021;-83
2021/04/11 05:59:41;;;;;;;4.75;2.10;;;;;;;;;;5012465;28;20033;-84
2021/04/11 06:02:32;;;;;;;5.00;2.33;;;;;;;;;;5023987;28;20540;-83
2021/04/11 06:05:22;;;;;;;4.38;2.30;;;;;;;;;;5022605;28;20026;-83
2021/04/11 06:08:08;;;;;;;;;;;;;;;;;;5023670;28;20025;-84
2021/04/11 06:10:56;;;;;;;5.32;2.80;;;;;;;;;;5033704;28;19913;-83
2021/04/11 06:13:47;;;;;;;9.32;3.03;;;;;;;;;;5025780;28;20030;-84
2021/04/11 06:16:33;;;;;;;6.68;2.42;;;;;;;;;;5027468;28;20057;-85
2021/04/11 06:19:19;;;;;;;7.38;2.53;;;;;;;;;;5025388;28;20039;-83
2021/04/11 06:22:10;;;;;;;7.30;2.60;;;;;;;;;;5024526;28;20033;-82
2021/04/11 06:25:02;;;;;;;8.25;2.60;;;;;;;;;;5022666;28;20033;-83
2021/04/11 06:28:09;;;;;;;6.97;2.25;;;;;;;;;;5024545;28;20388;-84
2021/04/11 06:31:03;;;;;;;5.50;2.60;;;;;;;;;;5038069;28;20499;-83
2021/04/11 06:33:51;;;;;;;8.15;2.60;;;;;;;;;;5022518;28;20029;-85
2021/04/11 06:36:38;;;;;;;8.65;3.13;;;;;;;;;;5025512;28;20034;-83
2021/04/11 06:39:34;;;;;;;6.07;2.40;;;;;;;;;;5026673;28;20066;-84
2021/04/11 06:42:43;;;;;;;6.18;2.20;;;;;;;;;;5023446;28;20033;-83
2021/04/11 06:45:30;;;;;;;5.32;2.53;;;;;;;;;;5019730;28;20038;-83
2021/04/11 06:48:22;;;;;;;5.10;2.50;;;;;;;;;;5024162;28;20021;-83
2021/04/11 06:51:16;;;;;;;4.35;2.13;;;;;;;;;;5022810;28;20025;-83
2021/04/11 06:54:20;;;;;;;3.60;2.40;;;;;;;;;;5036326;28;20018;-81
2021/04/11 06:57:09;;;;;;;4.57;2.28;;;;;;;;;;5024113;28;20025;-83
2021/04/11 07:00:05;;;;;;;22.55;15.73;;;;;;;;;;5016122;28;20488;-83
2021/04/11 07:02:53;;;;;;;13.55;8.70;;;;;;;;;;5017553;28;20048;-81
2021/04/11 07:05:48;;;;;;;7.75;2.85;;;;;;;;;;5023250;28;20037;-82
2021/04/11 07:08:42;;;;;;;7.82;2.25;;;;;;;;;;5034050;28;20388;-85
2021/04/11 07:11:46;;;;;;;1.85;1.50;;;;;;;;;;5023823;28;20116;-82
2021/04/11 07:14:35;;;;;;;5.22;2.45;;;;;;;;;;5023459;28;20048;-82
2021/04/11 07:17:49;;;;;;;3.58;1.77;;;;;;;;;;5030908;28;20088;-85
2021/04/11 07:20:54;;;;;;;3.17;1.70;;;;;;;;;;5023894;28;20464;-82
2021/04/11 07:23:51;;;;;;;9.15;1.80;;;;;;;;;;5026248;28;20525;-83
2021/04/11 07:26:55;;;;;;;2.97;1.40;;;;;;;;;;5023212;28;20525;-83
2021/04/11 07:29:49;;;;;;;5.25;1.85;;;;;;;;;;5007582;28;20025;-83
2021/04/11 07:32:53;;;;;;;7.40;2.03;;;;;;;;;;5025520;28;20101;-84
2021/04/11 07:35:50;;;;;;;12.57;2.65;;;;;;;;;;5009710;28;20083;-85
2021/04/11 07:38:54;;;;;;;11.38;3.28;;;;;;;;;;5024436;28;20060;-85
2021/04/11 07:41:45;;;;;;;12.38;7.55;;;;;;;;;;5043323;28;20096;-85
2021/04/11 07:44:50;;;;;;;8.60;2.20;;;;;;;;;;5033375;28;20148;-85
2021/04/11 07:47:50;;;;;;;4.25;1.85;;;;;;;;;;5049450;28;20029;-86
2021/04/11 07:50:54;;;;;;;8.05;2.28;;;;;;;;;;5048126;28;20089;-87
2021/04/11 07:53:48;;;;;;;7.00;1.90;;;;;;;;;;5047231;28;20013;-90
2021/04/11 07:56:52;;;;;;;3.85;2.08;;;;;;;;;;5049349;28;20034;-88
2021/04/11 07:59:38;;;;;;;2.13;1.50;;;;;;;;;;5045722;28;20025;-87
2021/04/11 08:02:32;;;;;;;4.88;1.80;;;;;;;;;;5048184;28;20057;-86
2021/04/11 08:05:20;;;;;;;3.22;1.20;;;;;;;;;;5046231;28;20513;-83
2021/04/11 08:08:10;;;;;;;3.17;1.60;;;;;;;;;;5047613;28;20013;-88
2021/04/11 08:11:14;;;;;;;5.45;1.95;;;;;;;;;;5049348;28;20613;-86
2021/04/11 08:14:05;;;;;;;4.80;1.60;;;;;;;;;;5048991;28;20041;-85
2021/04/11 08:16:53;;;;;;;3.33;1.50;;;;;;;;;;5029521;28;20046;-86
2021/04/11 08:19:48;;;;;;;3.00;1.50;;;;;;;;;;5046986;28;20013;-87
2021/04/11 08:22:47;;;;;;;3.00;1.65;;;;;;;;;;5043064;28;20006;-87
2021/04/11 08:25:44;;;;;;;2.28;1.52;;;;;;;;;;5045524;28;20081;-86
2021/04/11 08:28:50;;;;;;;2.63;1.30;;;;;;;;;;5034868;28;20024;-85
2021/04/11 08:31:50;;;;;;;6.13;1.58;;;;;;;;;;5041515;28;20093;-85
2021/04/11 08:34:55;;;;;;;2.78;1.38;;;;;;;;;;5048798;28;20121;-88
2021/04/11 08:37:51;;;;;;;4.65;1.40;;;;;;;;;;5040045;28;20390;-86
2021/04/11 08:40:55;;;;;;;3.33;1.30;;;;;;;;;;5026789;28;20049;-79
2021/04/11 08:43:59;;;;;;;4.38;1.38;;;;;;;;;;5021159;28;20117;-78
2021/04/11 08:46:57;;;;;;;3.70;1.60;;;;;;;;;;5026009;28;20095;-77
2021/04/11 08:49:46;;;;;;;3.97;1.30;;;;;;;;;;5034588;28;20105;-77
2021/04/11 08:52:41;;;;;;;3.10;1.27;;;;;;;;;;5038131;28;20033;-87
2021/04/11 08:55:33;;;;;;;2.90;1.30;;;;;;;;;;5026748;28;20117;-86
2021/04/11 08:58:37;;;;;;;2.65;1.20;;;;;;;;;;5020563;28;20047;-84
2021/04/11 09:01:38;;;;;;;2.17;1.30;;;;;;;;;;5025691;28;20025;-85
2021/04/11 09:04:37;;;;;;;2.40;1.20;;;;;;;;;;5023416;28;20391;-83
2021/04/11 09:07:23;;;;;;;;;;;;;;;;;;5026252;28;20030;-86
2021/04/11 09:10:11;;;;;;;2.40;1.27;;;;;;;;;;5024400;28;19909;-85
2021/04/11 09:13:20;;;;;;;11.05;5.85;;;;;;;;;;5025491;28;20357;-85
2021/04/11 09:16:29;;;;;;;1.38;1.10;;;;;;;;;;5025738;28;20041;-83
2021/04/11 09:19:20;;;;;;;7.38;1.70;;;;;;;;;;5026521;28;20502;-84
2021/04/11 09:22:15;;;;;;;3.28;1.48;;;;;;;;;;5026245;28;20029;-84
2021/04/11 09:25:05;;;;;;;2.90;1.52;;;;;;;;;;5023810;28;20030;-88
2021/04/11 09:28:09;;;;;;;7.80;1.70;;;;;;;;;;5028867;28;20018;-87
2021/04/11 09:30:54;;;;;;;6.50;1.50;;;;;;;;;;5026808;28;20052;-85
2021/04/11 09:33:52;;;;;;;4.72;1.42;;;;;;;;;;5029382;28;20028;-85
2021/04/11 09:36:57;;;;;;;3.40;1.60;;;;;;;;;;5022736;28;20104;-85
2021/04/11 09:40:06;;;;;;;3.45;1.60;;;;;;;;;;5026390;28;20025;-83
2021/04/11 09:43:10;;;;;;;10.13;2.08;;;;;;;;;;5023941;28;20072;-85
2021/04/11 09:46:08;;;;;;;4.78;1.50;;;;;;;;;;5020582;28;20363;-85
2021/04/11 09:49:02;;;;;;;4.32;1.50;;;;;;;;;;5027846;28;20111;-85
2021/04/11 09:52:06;;;;;;;8.68;3.55;;;;;;;;;;5027486;28;20029;-88
2021/04/11 09:55:01;;;;;;;3.67;2.35;;;;;;;;;;5023343;28;20017;-87
2021/04/11 09:58:01;;;;;;;4.18;1.88;;;;;;;;;;5026889;28;20017;-87
2021/04/11 10:00:47;;;;;;;4.25;1.48;;;;;;;;;;5023975;28;20038;-92
2021/04/11 10:03:39;;;;;;;4.10;1.88;;;;;;;;;;5014390;28;20029;-94
2021/04/11 10:06:59;;;;;;;4.50;1.63;;;;;;;;;;5030014;28;20501;-90
2021/04/11 10:09:56;;;;;;;4.45;1.95;;;;;;;;;;5047351;28;20059;-85
2021/04/11 10:13:09;;;;;;;6.73;2.00;;;;;;;;;;5024466;28;20031;-91
2021/04/11 10:15:57;;;;;;;4.88;1.95;;;;;;;;;;5014600;28;20041;-90
2021/04/11 10:19:04;;;;;;;3.58;1.92;;;;;;;;;;5030876;28;20064;-89
2021/04/11 10:21:52;;;;;;;5.13;2.30;;;;;;;;;;5039783;28;20044;-88
2021/04/11 10:24:46;;;;;;;3.58;2.03;;;;;;;;;;5024868;28;20037;-88
2021/04/11 10:27:34;;;;;;;4.30;1.70;;;;;;;;;;5027080;28;20029;-87
2021/04/11 10:30:22;;;;;;;4.70;1.27;;;;;;;;;;5023630;28;20040;-89
2021/04/11 10:33:26;;;;;;;6.07;1.75;;;;;;;;;;5018665;28;20029;-89
2021/04/11 10:36:26;;;;;;;5.70;1.60;;;;;;;;;;5029425;28;20067;-89
2021/04/11 10:39:27;;;;;;;3.95;1.48;;;;;;;;;;5021870;28;20082;-90
2021/04/11 10:42:22;;;;;;;3.60;1.80;;;;;;;;;;5022319;28;20032;-87
2021/04/11 10:45:27;;;;;;;4.28;1.40;;;;;;;;;;5027880;28;20033;-88
2021/04/11 10:48:33;;;;;;;4.15;1.38;;;;;;;;;;5022272;28;20025;-87
2021/04/11 10:51:24;;;;;;;4.13;1.38;;;;;;;;;;5020658;28;20028;-87
2021/04/11 10:54:34;;;;;;;1.90;1.20;;;;;;;;;;5024355;28;20037;-92
2021/04/11 10:57:51;;;;;;;;;;;;;;;;;;;;;
2021/04/11 11:37:12;;;;;;;4.97;1.73;;;;;;;;;;4714610;30;20041;-82
2021/04/11 11:40:03;;;;;;;4.85;2.13;;;;;;;;;;4926429;28;20049;-77
2021/04/11 11:42:54;;;;;;;5.63;1.55;;;;;;;;;;5030921;28;20028;-78
2021/04/11 11:45:58;;;;;;;7.63;1.75;;;;;;;;;;5030940;28;20032;-82
2021/04/11 11:48:52;;;;;;;4.15;1.73;;;;;;;;;;5029004;28;20032;-82
2021/04/11 11:51:59;;;;;;;5.20;1.77;;;;;;;;;;5026334;28;20058;-77
2021/04/11 11:54:46;;;;;;;4.70;1.75;;;;;;;;;;5029773;28;20033;-84
2021/04/11 11:57:43;;;;;;;4.72;1.83;;;;;;;;;;5023352;28;20479;-77
2021/04/11 12:00:32;;;;;;;2.83;1.63;;;;;;;;;;5027570;28;20028;-78
2021/04/11 12:03:26;;;;;;;5.43;1.45;;;;;;;;;;5028925;28;20033;-78
2021/04/11 12:06:14;;;;;;;5.47;1.60;;;;;;;;;;5026059;28;20499;-78
2021/04/11 12:09:06;;;;;;;3.05;1.48;;;;;;;;;;5016737;28;20098;-78
2021/04/11 12:12:02;;;;;;;5.97;1.80;;;;;;;;;;5029588;28;20048;-79
2021/04/11 12:15:07;;;;;;;4.03;1.70;;;;;;;;;;5027263;28;20465;-78
2021/04/11 12:18:11;;;;;;;5.50;1.40;;;;;;;;;;5025830;28;20067;-78
2021/04/11 12:21:26;;;;;;;6.00;1.80;;;;;;;;;;5025637;28;20021;-81
2021/04/11 12:24:11;;;;;;;2.75;1.60;;;;;;;;;;5017115;28;20037;-79
2021/04/11 12:26:58;;;;;;;6.60;1.85;;;;;;;;;;5027897;28;20032;-85
2021/04/11 12:29:47;;;;;;;5.28;1.67;;;;;;;;;;5028716;28;20036;-87
2021/04/11 12:32:48;;;;;;;3.95;1.73;;;;;;;;;;5029025;28;20075;-83
2021/04/11 12:35:38;;;;;;;3.88;1.73;;;;;;;;;;5031090;28;20033;-86
2021/04/11 12:38:44;;;;;;;4.78;1.55;;;;;;;;;;5030908;28;20078;-86
2021/04/11 12:41:32;;;;;;;4.40;1.35;;;;;;;;;;5032778;28;20025;-87
2021/04/11 12:44:20;;;;;;;11.40;5.30;;;;;;;;;;5028329;28;20123;-86
2021/04/11 12:47:17;;;;;;;10.40;5.38;;;;;;;;;;5028644;28;20506;-84
2021/04/11 12:50:05;;;;;;;2.38;1.55;;;;;;;;;;5027950;28;20033;-81
2021/04/11 12:52:57;;;;;;;3.63;1.92;;;;;;;;;;5027142;28;20028;-84
2021/04/11 12:55:45;;;;;;;3.60;2.00;;;;;;;;;;5045899;23;20024;-83
2021/04/11 12:58:49;;;;;;;9.35;5.28;;;;;;;;;;5023648;28;20120;-87
2021/04/11 13:01:45;;;;;;;5.60;1.80;;;;;;;;;;5028531;28;20059;-88
2021/04/11 13:04:36;;;;;;;2.78;1.60;;;;;;;;;;5027183;28;20036;-88
2021/04/11 13:07:25;;;;;;;3.65;1.40;;;;;;;;;;5035443;28;20040;-89
2021/04/11 13:14:24;;;;;;;4.63;1.42;;;;;;;;;;5008067;28;20520;-89
2021/04/11 13:21:10;;;;;;;3.42;1.70;;;;;;;;;;5043373;28;20445;-93
2021/04/11 13:24:17;;;;;;;2.28;1.25;;;;;;;;;;4970094;28;20039;-95
2021/04/11 13:27:15;;;;;;;7.75;3.60;;;;;;;;;;4956990;28;20023;-86
2021/04/11 13:30:14;;;;;;;5.97;2.40;;;;;;;;;;4967650;28;20026;-84
2021/04/11 13:32:59;;;;;;;4.53;2.35;;;;;;;;;;4947466;28;20169;-86
2021/04/11 13:35:57;;;;;;;7.95;4.13;;;;;;;;;;4951177;28;20529;-85
2021/04/11 13:38:43;;;;;;;2.55;1.38;;;;;;;;;;4986545;28;20041;-84
2021/04/11 13:41:37;;;;;;;7.53;1.60;;;;;;;;;;5020379;28;20533;-84
2021/04/11 13:44:46;;;;;;;11.18;3.75;;;;;;;;;;5032889;28;20039;-83
2021/04/11 13:47:50;;;;;;;2.87;1.70;;;;;;;;;;5017810;28;20521;-84
2021/04/11 13:50:42;;;;;;;5.25;1.95;;;;;;;;;;5026466;28;20036;-87
2021/04/11 13:53:33;;;;;;;3.70;1.65;;;;;;;;;;5033104;28;20028;-85
2021/04/11 13:56:21;;;;;;;6.55;2.58;;;;;;;;;;5028620;28;20048;-84
2021/04/11 13:59:12;;;;;;;5.55;2.22;;;;;;;;;;5034622;28;20175;-84
2021/04/11 14:01:59;;;;;;;2.58;1.45;;;;;;;;;;5030704;28;20035;-85
2021/04/11 14:04:54;;;;;;;5.82;1.48;;;;;;;;;;5031669;28;20063;-85
2021/04/11 14:07:45;;;;;;;1.95;1.30;;;;;;;;;;5044146;28;20471;-85
2021/04/11 14:10:39;;;;;;;5.40;2.05;;;;;;;;;;5034399;28;20112;-85
2021/04/11 14:13:32;;;;;;;3.63;1.30;;;;;;;;;;5031688;28;20013;-85
2021/04/11 14:16:21;;;;;;;3.55;1.40;;;;;;;;;;5030893;28;20051;-84
2021/04/11 14:19:14;;;;;;;4.00;1.73;;;;;;;;;;5020010;28;20110;-85
2021/04/11 14:22:02;;;;;;;3.13;1.48;;;;;;;;;;5027504;28;20076;-84
2021/04/11 14:24:57;;;;;;;3.60;2.33;;;;;;;;;;5037184;28;20029;-84
2021/04/11 14:27:47;;;;;;;3.80;2.08;;;;;;;;;;5015197;28;20231;-85
2021/04/11 14:30:51;;;;;;;3.58;1.52;;;;;;;;;;5034744;28;20017;-85
2021/04/11 14:33:36;;;;;;;3.58;1.38;;;;;;;;;;5031599;28;20067;-85
2021/04/11 14:36:23;;;;;;;4.97;2.25;;;;;;;;;;5033079;28;20189;-86
2021/04/11 14:39:15;;;;;;;3.85;1.70;;;;;;;;;;5028245;28;20017;-85
2021/04/11 14:42:02;;;;;;;2.83;1.70;;;;;;;;;;5034919;28;20104;-83
2021/04/11 14:44:50;;;;;;;5.22;1.35;;;;;;;;;;5035187;28;20045;-89
2021/04/11 14:47:42;;;;;;;1.83;1.40;;;;;;;;;;5030437;28;20018;-90
2021/04/11 14:50:33;;;;;;;5.10;1.95;;;;;;;;;;5034281;28;20028;-86
2021/04/11 14:53:25;;;;;;;3.30;1.45;;;;;;;;;;5014232;28;20136;-84
2021/04/11 14:56:29;;;;;;;2.15;1.45;;;;;;;;;;5032273;28;20048;-84
2021/04/11 14:59:24;;;;;;;4.13;1.58;;;;;;;;;;5028835;28;20044;-85
2021/04/11 15:02:22;;;;;;;2.75;1.60;;;;;;;;;;5030009;28;20075;-85
2021/04/11 15:05:13;;;;;;;4.70;1.73;;;;;;;;;;5028714;28;20032;-84
2021/04/11 15:07:58;;;;;;;4.13;2.00;;;;;;;;;;5028451;28;20124;-85
2021/04/11 15:10:50;;;;;;;3.38;1.95;;;;;;;;;;5029190;28;20055;-86
2021/04/11 15:13:47;;;;;;;6.10;1.67;;;;;;;;;;5025558;28;20043;-86
2021/04/11 15:16:33;;;;;;;3.75;2.00;;;;;;;;;;5029638;28;20029;-87
2021/04/11 15:19:27;;;;;;;35.95;24.92;;;;;;;;;;5032875;28;20028;-92
2021/04/11 15:22:19;;;;;;;28.85;20.98;;;;;;;;;;5034754;28;20017;-91
2021/04/11 15:25:08;;;;;;;19.25;11.63;;;;;;;;;;5030226;28;20083;-89
2021/04/11 15:28:02;;;;;;;13.80;7.00;;;;;;;;;;5036154;28;20104;-91
2021/04/11 15:30:56;;;;;;;9.13;4.35;;;;;;;;;;5018037;28;20113;-86
2021/04/11 15:33:49;;;;;;;5.38;2.10;;;;;;;;;;5042964;28;20028;-86
2021/04/11 15:36:47;;;;;;;5.90;1.95;;;;;;;;;;5028212;28;20028;-84
2021/04/11 15:39:35;;;;;;;4.18;1.80;;;;;;;;;;5018500;28;20032;-86
2021/04/11 15:42:29;;;;;;;3.92;1.95;;;;;;;;;;5023664;28;20045;-86
2021/04/11 15:45:20;;;;;;;4.38;1.40;;;;;;;;;;5030536;28;20029;-92
2021/04/11 15:48:17;;;;;;;4.85;1.83;;;;;;;;;;5035171;28;20333;-88
2021/04/11 15:51:14;;;;;;;3.42;1.60;;;;;;;;;;5026589;28;20103;-88
2021/04/11 15:54:06;;;;;;;3.67;1.98;;;;;;;;;;5029308;28;20036;-90
2021/04/11 15:57:09;;;;;;;4.07;2.08;;;;;;;;;;5026129;28;20584;-87
2021/04/11 15:59:55;;;;;;;5.53;1.77;;;;;;;;;;5032749;28;20025;-89
2021/04/11 16:02:50;;;;;;;7.57;2.60;;;;;;;;;;5023448;28;20024;-87
2021/04/11 16:05:54;;;;;;;7.70;3.15;;;;;;;;;;5027776;28;20021;-85
2021/04/11 16:08:58;;;;;;;2.80;1.88;;;;;;;;;;5031326;28;20025;-84
2021/04/11 16:11:50;;;;;;;20.15;17.95;;;;;;;;;;5027848;28;20555;-86
2021/04/11 16:14:50;;;;;;;15.80;9.95;;;;;;;;;;5031184;28;20059;-84
2021/04/11 16:17:48;;;;;;;5.68;3.10;;;;;;;;;;5025195;28;20029;-88
2021/04/11 16:20:43;;;;;;;2.15;1.52;;;;;;;;;;5031978;28;20387;-85
2021/04/11 16:23:36;;;;;;;3.35;1.90;;;;;;;;;;5025980;28;20082;-86
2021/04/11 16:26:40;;;;;;;5.53;2.00;;;;;;;;;;5014590;28;20068;-83
2021/04/11 16:29:29;;;;;;;4.85;1.67;;;;;;;;;;5025364;28;20106;-82
2021/04/11 16:32:30;;;;;;;2.97;2.00;;;;;;;;;;5027261;28;20029;-83
2021/04/11 16:35:16;;;;;;;3.70;1.40;;;;;;;;;;5030518;28;20078;-83
2021/04/11 16:38:17;;;;;;;1.67;1.33;;;;;;;;;;5026339;28;20028;-82
2021/04/11 16:41:21;;;;;;;4.22;2.38;;;;;;;;;;5036207;28;20028;-82
2021/04/11 16:44:19;;;;;;;9.93;5.30;;;;;;;;;;5031923;28;20033;-82
2021/04/11 16:47:22;;;;;;;3.50;2.15;;;;;;;;;;5027464;28;20036;-83
2021/04/11 16:50:07;;;;;;;2.97;1.40;;;;;;;;;;5029593;28;20381;-82
2021/04/11 16:53:01;;;;;;;3.58;1.48;;;;;;;;;;5031948;28;20073;-87
2021/04/11 16:55:57;;;;;;;2.63;1.38;;;;;;;;;;5033454;28;20025;-84
2021/04/11 16:58:43;;;;;;;1.75;1.10;;;;;;;;;;5028680;28;20041;-84
2021/04/11 17:01:29;;;;;;;3.47;1.65;;;;;;;;;;5018667;28;20502;-83
2021/04/11 17:04:23;;;;;;;2.55;1.42;;;;;;;;;;5027153;28;20029;-82
2021/04/11 17:07:25;;;;;;;2.13;1.35;;;;;;;;;;5030846;28;20021;-85
2021/04/11 17:10:18;;;;;;;5.70;1.50;;;;;;;;;;5028006;28;20063;-86
2021/04/11 17:13:24;;;;;;;5.80;3.17;;;;;;;;;;5036613;28;20029;-87
2021/04/11 17:16:19;;;;;;;28.00;18.98;;;;;;;;;;5035714;28;20357;-87
2021/04/11 17:19:11;;;;;;;6.60;3.85;;;;;;;;;;5034411;28;20691;-87
2021/04/11 17:22:00;;;;;;;4.18;2.20;;;;;;;;;;5022290;28;20498;-87
2021/04/11 17:25:04;;;;;;;4.38;1.60;;;;;;;;;;5027463;28;20075;-87
2021/04/11 17:28:05;;;;;;;2.47;1.58;;;;;;;;;;5034793;28;20234;-87
2021/04/11 17:30:50;;;;;;;1.20;1.08;;;;;;;;;;5032706;28;20083;-87
2021/04/11 17:33:48;;;;;;;2.08;1.13;;;;;;;;;;5021622;28;20021;-86
2021/04/11 17:36:52;;;;;;;1.40;1.30;;;;;;;;;;5024702;28;20025;-86
2021/04/11 17:39:38;;;;;;;3.00;1.70;;;;;;;;;;5026743;28;20074;-84
2021/04/11 17:42:38;;;;;;;1.48;1.17;;;;;;;;;;5026695;28;20418;-86
2021/04/11 17:45:42;;;;;;;2.22;1.55;;;;;;;;;;5025617;28;20503;-84
2021/04/11 17:48:35;;;;;;;1.50;1.15;;;;;;;;;;5035219;28;20032;-84
2021/04/11 17:51:46;;;;;;;2.55;1.52;;;;;;;;;;5028994;28;20463;-85
2021/04/11 17:54:37;;;;;;;3.97;2.08;;;;;;;;;;5032257;28;20434;-85
2021/04/11 17:57:22;;;;;;;3.53;1.65;;;;;;;;;;5019440;28;20482;-86
2021/04/11 18:00:26;;;;;;;5.38;3.78;;;;;;;;;;5021042;28;20030;-84
2021/04/11 18:03:12;;;;;;;1.85;1.58;;;;;;;;;;5039520;28;20029;-83